Terminal Aerodrome Forecast
Issued by NWS Glasgow, MT

Home | Current Version | Previous Version | Text Only | Print | Product List | Glossary On
Versions: 1 2 3 4 5 6 7 8 9 10 11 12 13 14 15 16 17 18 19 20 21 22
000
FTUS45 KGGW 231100
TAFGGW
TAF
KGGW 231126Z 2312/2412 07020G30KT 4SM RA BR SCT015 OVC030
     FM231500 06020G30KT 6SM -RA OVC020
     FM231900 06023G33KT 4SM RA BR OVC010
     FM240000 04020G28KT 4SM RA BR OVC010
     FM240600 35015G25KT 6SM -RA OVC025=

USA.gov is the U.S. government's official web portal to all federal, state and local government web resources and services.